createdAt,value
2022-11-02T00:04:46.120Z,7.50
2022-11-02T00:09:47.665Z,7.41
2022-11-02T00:14:49.292Z,7.19
2022-11-02T00:19:50.970Z,7.16
2022-11-02T00:24:53.242Z,7.13
2022-11-02T00:29:54.827Z,7.12
2022-11-02T00:34:56.494Z,7.25
2022-11-02T00:39:58.192Z,7.38
2022-11-02T00:44:59.793Z,7.18
2022-11-02T00:50:01.552Z,6.88
2022-11-02T00:55:03.221Z,7.15
2022-11-02T01:00:06.746Z,7.26
2022-11-02T01:05:09.919Z,7.10
2022-11-02T01:10:11.627Z,7.17
2022-11-02T01:15:14.175Z,6.70
2022-11-02T01:20:15.746Z,6.75
2022-11-02T01:25:17.754Z,6.92
2022-11-02T01:30:19.342Z,6.80
2022-11-02T01:35:20.940Z,6.73
2022-11-02T01:40:22.556Z,6.69
2022-11-02T01:45:24.210Z,6.73
2022-11-02T01:50:27.642Z,6.81
2022-11-02T01:55:32.661Z,6.42
2022-11-02T02:00:34.261Z,6.16
2022-11-02T02:05:41.352Z,6.06
2022-11-02T02:10:43.616Z,6.07
2022-11-02T02:16:33.485Z,6.09
2022-11-02T02:21:47.459Z,6.38
2022-11-02T02:27:16.165Z,6.32
2022-11-02T02:32:26.938Z,6.30
2022-11-02T02:37:40.650Z,6.14
2022-11-02T02:43:05.314Z,5.90
2022-11-02T02:48:15.218Z,6.11
2022-11-02T02:53:22.741Z,5.96
2022-11-02T02:58:28.500Z,6.04
2022-11-02T03:03:31.447Z,5.85
2022-11-02T03:08:38.274Z,5.92
2022-11-02T03:14:26.767Z,5.98
2022-11-02T03:19:49.593Z,5.95
2022-11-02T03:25:15.787Z,5.69
2022-11-02T03:30:23.176Z,6.00
2022-11-02T03:35:39.403Z,5.85
2022-11-02T03:40:54.747Z,5.69
2022-11-02T03:46:02.772Z,5.98
2022-11-02T03:51:10.438Z,5.75
2022-11-02T03:56:35.621Z,5.61
2022-11-02T04:01:42.672Z,6.04
2022-11-02T04:06:48.056Z,5.96
2022-11-02T04:12:08.597Z,6.01
2022-11-02T04:22:52.666Z,5.98
2022-11-02T04:27:54.321Z,5.63
2022-11-02T04:33:19.954Z,5.40
2022-11-02T04:38:40.824Z,5.62
2022-11-02T04:43:58.574Z,5.95
2022-11-02T04:49:00.548Z,5.92
2022-11-02T04:54:04.096Z,5.90
2022-11-02T04:59:06.780Z,5.62
2022-11-02T05:04:11.295Z,5.42
2022-11-02T05:09:14.434Z,5.50
2022-11-02T05:14:19.938Z,5.65
2022-11-02T05:19:22.070Z,5.83
2022-11-02T05:24:24.376Z,5.59
2022-11-02T05:29:26.842Z,5.47
2022-11-02T05:34:28.755Z,5.42
2022-11-02T05:39:30.595Z,5.69
2022-11-02T05:44:33.156Z,5.71
2022-11-02T05:49:35.444Z,5.72
2022-11-02T05:54:37.001Z,5.66
2022-11-02T05:59:38.600Z,5.35
2022-11-02T06:04:40.252Z,5.64
2022-11-02T06:09:42.037Z,5.38
2022-11-02T06:14:43.653Z,5.22
2022-11-02T06:19:45.224Z,5.06
2022-11-02T06:24:46.846Z,5.24
2022-11-02T06:29:48.440Z,5.63
2022-11-02T06:34:49.984Z,5.60
2022-11-02T06:39:51.529Z,5.65
2022-11-02T06:44:53.130Z,5.73
2022-11-02T06:49:54.668Z,5.93
2022-11-02T06:54:56.340Z,6.52
2022-11-02T07:00:04.156Z,6.61
2022-11-02T07:05:06.451Z,6.53
2022-11-02T07:10:10.532Z,6.62
2022-11-02T07:15:12.075Z,6.74
2022-11-02T07:20:13.635Z,6.77
2022-11-02T07:25:15.379Z,6.80
2022-11-02T07:30:17.269Z,6.77
2022-11-02T07:35:18.890Z,6.94
2022-11-02T07:40:20.438Z,7.08
2022-11-02T07:45:23.144Z,7.49
2022-11-02T07:50:27.238Z,7.83
2022-11-02T07:55:31.240Z,7.91
2022-11-02T08:00:37.223Z,7.89
2022-11-02T08:05:41.232Z,8.13
2022-11-02T08:10:44.335Z,8.53
2022-11-02T08:15:52.614Z,9.47
2022-11-02T08:20:58.232Z,10.13
2022-11-02T08:26:00.377Z,10.72
2022-11-02T08:31:02.300Z,11.31
2022-11-02T08:36:04.920Z,11.78
2022-11-02T08:41:06.539Z,12.43
2022-11-02T08:46:14.894Z,12.73
2022-11-02T08:51:17.483Z,12.93
2022-11-02T08:56:19.458Z,12.99
2022-11-02T09:01:21.082Z,12.85
2022-11-02T09:06:22.669Z,13.02
2022-11-02T09:11:24.181Z,13.51
2022-11-02T09:16:25.704Z,13.36
2022-11-02T09:21:27.258Z,13.52
2022-11-02T09:26:28.864Z,13.67
2022-11-02T09:31:30.500Z,13.87
2022-11-02T09:36:32.066Z,13.88
2022-11-02T09:41:43.367Z,13.96
2022-11-02T09:46:46.800Z,14.02
2022-11-02T09:51:52.161Z,13.91
2022-11-02T09:56:58.096Z,13.61
2022-11-02T10:02:16.142Z,13.78
2022-11-02T10:07:36.537Z,13.74
2022-11-02T10:12:56.818Z,13.87
2022-11-02T10:18:00.401Z,13.66
2022-11-02T10:23:08.013Z,13.88
2022-11-02T10:28:22.174Z,14.04
2022-11-02T10:33:27.783Z,14.61
2022-11-02T10:38:52.331Z,14.94
2022-11-02T10:44:14.484Z,15.60
2022-11-02T10:49:22.396Z,15.48
2022-11-02T10:54:33.240Z,15.43
2022-11-02T10:59:34.916Z,15.59
2022-11-02T11:04:37.947Z,15.87
2022-11-02T11:09:49.392Z,16.12
2022-11-02T11:20:39.884Z,16.58
2022-11-02T11:25:42.470Z,16.02
2022-11-02T11:30:59.383Z,15.27
2022-11-02T11:36:01.887Z,14.86
2022-11-02T11:41:04.288Z,14.58
2022-11-02T11:46:08.327Z,14.51
2022-11-02T11:51:27.827Z,14.43
2022-11-02T11:56:29.707Z,14.19
2022-11-02T12:01:40.122Z,14.64
2022-11-02T12:06:45.953Z,14.73
2022-11-02T12:12:11.313Z,14.86
2022-11-02T12:17:31.387Z,14.62
2022-11-02T12:22:41.317Z,14.17
2022-11-02T12:27:53.034Z,14.33
2022-11-02T12:33:24.008Z,14.52
2022-11-02T12:38:47.366Z,14.59
2022-11-02T12:43:50.749Z,14.05
2022-11-02T12:48:58.273Z,13.98
2022-11-02T12:54:24.621Z,14.33
2022-11-02T12:59:29.086Z,14.59
2022-11-02T13:04:41.590Z,14.48
2022-11-02T13:10:01.924Z,14.72
2022-11-02T13:15:10.909Z,14.35
2022-11-02T13:20:53.275Z,14.59
2022-11-02T13:25:59.475Z,14.47
2022-11-02T13:31:08.586Z,14.55
2022-11-02T13:36:15.255Z,14.54
2022-11-02T13:41:25.981Z,14.48
2022-11-02T13:46:46.285Z,14.33
2022-11-02T13:51:54.870Z,14.32
2022-11-02T13:56:58.645Z,14.42
2022-11-02T14:02:03.989Z,14.34
2022-11-02T14:07:19.397Z,14.44
2022-11-02T14:12:20.912Z,14.45
2022-11-02T14:17:22.596Z,14.34
2022-11-02T14:22:24.278Z,14.20
2022-11-02T14:27:25.842Z,14.19
2022-11-02T14:32:40.964Z,14.02
2022-11-02T14:38:21.351Z,13.99
2022-11-02T14:43:57.042Z,13.87
2022-11-02T14:49:00.867Z,13.74
2022-11-02T14:54:14.391Z,13.83
2022-11-02T14:59:21.294Z,13.75
2022-11-02T15:04:25.258Z,13.59
2022-11-02T15:09:57.084Z,13.21
2022-11-02T15:15:01.992Z,13.10
2022-11-02T15:20:15.625Z,13.08
2022-11-02T15:25:25.692Z,12.91
2022-11-02T15:30:28.737Z,12.49
2022-11-02T15:35:34.089Z,12.42
2022-11-02T15:40:45.468Z,12.08
2022-11-02T15:46:05.038Z,11.94
2022-11-02T15:51:26.381Z,11.62
2022-11-02T15:56:49.348Z,11.33
2022-11-02T16:02:10.206Z,11.15
2022-11-02T16:07:14.925Z,10.96
2022-11-02T16:12:21.876Z,10.97
2022-11-02T16:17:24.715Z,10.80
2022-11-02T16:22:26.951Z,10.70
2022-11-02T16:27:28.550Z,10.57
2022-11-02T16:32:30.547Z,10.37
2022-11-02T16:37:32.583Z,10.28
2022-11-02T16:42:34.274Z,10.24
2022-11-02T16:47:41.551Z,10.20
2022-11-02T16:52:54.199Z,10.23
2022-11-02T16:57:56.750Z,10.22
2022-11-02T17:03:07.466Z,10.10
2022-11-02T17:08:26.328Z,10.05
2022-11-02T17:13:35.478Z,10.01
2022-11-02T17:18:37.792Z,9.96
2022-11-02T17:23:46.255Z,9.88
2022-11-02T17:29:02.328Z,9.95
2022-11-02T17:34:15.521Z,9.58
2022-11-02T17:39:19.528Z,9.54
2022-11-02T17:44:21.144Z,9.50
2022-11-02T17:49:22.709Z,9.56
2022-11-02T17:54:24.650Z,9.57
2022-11-02T17:59:26.133Z,9.62
2022-11-02T18:04:27.626Z,9.57
2022-11-02T18:09:29.259Z,9.48
2022-11-02T18:14:30.865Z,9.52
2022-11-02T18:19:33.378Z,9.52
2022-11-02T18:24:35.232Z,9.57
2022-11-02T18:29:36.840Z,9.44
2022-11-02T18:34:38.346Z,9.49
2022-11-02T18:39:39.950Z,9.44
2022-11-02T18:44:41.589Z,9.31
2022-11-02T18:49:43.376Z,9.35
2022-11-02T18:54:45.070Z,9.40
2022-11-02T18:59:46.609Z,9.25
2022-11-02T19:04:48.192Z,9.21
2022-11-02T19:09:49.800Z,8.96
2022-11-02T19:14:53.429Z,9.05
2022-11-02T19:19:55.159Z,8.86
2022-11-02T19:24:56.777Z,8.73
2022-11-02T19:29:58.330Z,8.73
2022-11-02T19:34:59.839Z,8.89
2022-11-02T19:40:02.267Z,8.82
2022-11-02T19:45:06.430Z,8.91
2022-11-02T19:50:17.454Z,9.11
2022-11-02T19:55:22.681Z,9.08
2022-11-02T20:00:24.260Z,9.10
2022-11-02T20:05:25.828Z,8.78
2022-11-02T20:10:27.421Z,8.54
2022-11-02T20:15:29.061Z,8.43
2022-11-02T20:20:30.591Z,8.15
2022-11-02T20:25:32.139Z,7.97
2022-11-02T20:30:33.673Z,7.82
2022-11-02T20:35:35.836Z,7.76
2022-11-02T20:40:41.114Z,7.63
2022-11-02T20:45:42.990Z,7.54
2022-11-02T20:50:44.606Z,7.53
2022-11-02T20:55:46.459Z,7.34
2022-11-02T21:00:48.197Z,7.36
2022-11-02T21:05:50.522Z,7.30
2022-11-02T21:11:00.240Z,7.04
2022-11-02T21:16:05.222Z,6.93
2022-11-02T21:21:12.116Z,6.87
2022-11-02T21:26:15.218Z,6.96
2022-11-02T21:31:19.506Z,7.25
2022-11-02T21:36:21.135Z,7.13
2022-11-02T21:41:28.913Z,6.98
2022-11-02T21:46:30.656Z,6.75
2022-11-02T21:51:32.220Z,6.60
2022-11-02T21:56:36.090Z,6.58
2022-11-02T22:01:48.426Z,6.62
2022-11-02T22:06:51.029Z,6.49
2022-11-02T22:12:11.244Z,6.47
2022-11-02T22:17:35.304Z,6.41
2022-11-02T22:22:35.043Z,6.35
2022-11-02T22:27:36.588Z,6.18
2022-11-02T22:32:38.178Z,6.09
2022-11-02T22:37:58.110Z,6.26
2022-11-02T22:42:59.613Z,6.19
2022-11-02T22:48:01.185Z,5.95
2022-11-02T22:53:02.737Z,5.82
2022-11-02T22:58:04.338Z,5.92
2022-11-02T23:03:06.068Z,5.69
2022-11-02T23:08:07.804Z,5.64
2022-11-02T23:13:09.563Z,5.51
2022-11-02T23:18:11.172Z,5.41
2022-11-02T23:23:31.359Z,5.39
2022-11-02T23:28:51.770Z,5.27
2022-11-02T23:33:53.341Z,5.21
2022-11-02T23:39:13.557Z,5.06
2022-11-02T23:44:15.110Z,5.07
2022-11-02T23:49:18.017Z,4.84
2022-11-02T23:54:38.456Z,4.75
2022-11-02T23:59:40.120Z,4.66
